createdAt,value
2018-06-04T00:00:46.947Z,8.27
2018-06-04T00:03:17.626Z,8.23
2018-06-04T00:05:48.304Z,8.17
2018-06-04T00:08:18.982Z,8.37
2018-06-04T00:10:49.799Z,8.67
2018-06-04T00:13:20.618Z,8.17
2018-06-04T00:15:51.312Z,8.77
2018-06-04T00:18:22.004Z,8.40
2018-06-04T00:20:52.748Z,8.37
2018-06-04T00:23:23.541Z,9.00
2018-06-04T00:25:53.843Z,8.63
2018-06-04T00:28:23.970Z,9.17
2018-06-04T00:30:54.559Z,7.77
2018-06-04T00:33:25.222Z,8.70
2018-06-04T00:35:55.877Z,8.60
2018-06-04T00:38:26.905Z,9.20
2018-06-04T00:40:57.129Z,8.43
2018-06-04T00:43:27.780Z,8.87
2018-06-04T00:45:58.560Z,8.80
2018-06-04T00:48:29.268Z,9.07
2018-06-04T00:50:59.981Z,9.00
2018-06-04T00:53:30.741Z,8.10
2018-06-04T00:56:18.685Z,8.93
2018-06-04T00:58:49.335Z,8.83
2018-06-04T01:01:20.114Z,9.17
2018-06-04T01:03:50.809Z,8.53
2018-06-04T01:06:21.579Z,9.23
2018-06-04T01:08:52.235Z,8.50
2018-06-04T01:11:22.967Z,9.50
2018-06-04T01:13:53.643Z,8.80
2018-06-04T01:16:24.301Z,8.37
2018-06-04T01:18:55.007Z,8.90
2018-06-04T01:21:25.651Z,8.93
2018-06-04T01:23:56.271Z,8.60
2018-06-04T01:26:26.962Z,8.57
2018-06-04T01:28:57.661Z,8.30
2018-06-04T01:31:27.961Z,9.30
2018-06-04T01:33:58.089Z,8.63
2018-06-04T01:36:28.650Z,8.50
2018-06-04T01:38:59.631Z,8.97
2018-06-04T01:41:30.342Z,7.33
2018-06-04T01:44:01.005Z,8.90
2018-06-04T01:46:31.663Z,8.47
2018-06-04T01:49:02.330Z,8.33
2018-06-04T01:51:33.052Z,9.20
2018-06-04T01:54:03.854Z,9.10
2018-06-04T01:56:34.536Z,8.37
2018-06-04T01:59:05.253Z,8.87
2018-06-04T02:01:36.011Z,8.93
2018-06-04T02:04:06.809Z,9.70
2018-06-04T02:06:37.514Z,9.43
2018-06-04T02:09:08.596Z,9.50
2018-06-04T02:11:39.293Z,9.60
2018-06-04T02:14:09.598Z,9.17
2018-06-04T02:16:40.219Z,9.90
2018-06-04T02:19:10.921Z,9.63
2018-06-04T02:21:41.700Z,8.90
2018-06-04T02:24:12.842Z,9.53
2018-06-04T02:26:43.617Z,9.50
2018-06-04T02:29:14.310Z,9.03
2018-06-04T02:31:45.078Z,9.30
2018-06-04T02:34:15.803Z,9.70
2018-06-04T02:36:46.487Z,10.03
2018-06-04T02:39:17.693Z,9.70
2018-06-04T02:41:52.136Z,9.17
2018-06-04T02:44:22.843Z,9.93
2018-06-04T02:46:53.602Z,9.27
2018-06-04T02:49:24.307Z,9.10
2018-06-04T02:51:55.097Z,9.40
2018-06-04T02:54:25.907Z,8.47
2018-06-04T02:56:56.660Z,8.27
2018-06-04T02:59:27.382Z,8.60
2018-06-04T03:01:58.099Z,8.17
2018-06-04T03:04:28.832Z,9.13
2018-06-04T03:06:59.593Z,8.83
2018-06-04T03:09:30.305Z,8.50
2018-06-04T03:12:01.049Z,8.40
2018-06-04T03:14:31.797Z,9.17
2018-06-04T03:17:02.572Z,9.03
2018-06-04T03:19:33.263Z,9.17
2018-06-04T03:22:04.315Z,8.40
2018-06-04T03:24:35.033Z,8.43
2018-06-04T03:27:05.898Z,8.33
2018-06-04T03:29:36.559Z,9.73
2018-06-04T03:32:07.362Z,9.07
2018-06-04T03:34:37.665Z,9.00
2018-06-04T03:37:09.092Z,9.03
2018-06-04T03:39:40.203Z,8.97
2018-06-04T03:42:10.976Z,10.13
2018-06-04T03:44:41.745Z,9.07
2018-06-04T03:47:12.688Z,10.23
2018-06-04T03:49:43.624Z,9.97
2018-06-04T03:52:14.682Z,9.10
2018-06-04T03:54:45.407Z,8.80
2018-06-04T03:57:16.719Z,9.13
2018-06-04T03:59:47.420Z,9.03
2018-06-04T04:02:19.853Z,8.67
2018-06-04T04:04:50.638Z,9.10
2018-06-04T04:07:21.393Z,9.03
2018-06-04T04:09:52.095Z,9.87
2018-06-04T04:12:22.797Z,9.57
2018-06-04T04:14:53.570Z,9.60
2018-06-04T04:17:24.349Z,9.03
2018-06-04T04:19:55.256Z,10.10
2018-06-04T04:22:26.421Z,9.63
2018-06-04T04:24:58.150Z,9.93
2018-06-04T04:27:28.991Z,9.57
2018-06-04T04:29:59.701Z,9.17
2018-06-04T04:32:30.536Z,9.60
2018-06-04T04:35:01.267Z,9.10
2018-06-04T04:37:32.065Z,9.50
2018-06-04T04:40:03.027Z,8.63
2018-06-04T04:42:36.642Z,8.10
2018-06-04T04:45:07.501Z,8.17
2018-06-04T04:47:38.170Z,8.73
2018-06-04T04:50:08.991Z,7.77
2018-06-04T04:52:41.857Z,7.87
2018-06-04T04:55:12.792Z,7.90
2018-06-04T04:57:44.051Z,8.83
2018-06-04T05:00:14.935Z,7.10
2018-06-04T05:02:45.976Z,8.47
2018-06-04T05:05:16.678Z,7.87
2018-06-04T05:07:47.359Z,7.63
2018-06-04T05:10:18.023Z,7.67
2018-06-04T05:12:48.640Z,7.50
2018-06-04T05:15:19.279Z,7.77
2018-06-04T05:17:49.977Z,7.43
2018-06-04T05:20:20.563Z,7.87
2018-06-04T05:22:51.247Z,7.77
2018-06-04T05:25:21.869Z,7.67
2018-06-04T05:27:52.455Z,7.67
2018-06-04T05:30:23.000Z,7.20
2018-06-04T05:32:53.798Z,7.70
2018-06-04T05:35:24.829Z,7.67
2018-06-04T05:37:55.613Z,8.00
2018-06-04T05:40:27.674Z,7.43
2018-06-04T05:42:58.084Z,7.57
2018-06-04T05:45:28.920Z,7.50
2018-06-04T05:47:59.753Z,7.53
2018-06-04T05:50:30.775Z,7.30
2018-06-04T05:53:01.623Z,7.70
2018-06-04T05:55:32.428Z,7.97
2018-06-04T05:58:03.131Z,7.17
2018-06-04T06:00:33.373Z,8.20
2018-06-04T06:03:04.042Z,7.53
2018-06-04T06:05:34.745Z,8.03
2018-06-04T06:08:05.511Z,7.47
2018-06-04T06:10:36.250Z,7.83
2018-06-04T06:13:06.963Z,7.33
2018-06-04T06:15:37.797Z,7.97
2018-06-04T06:18:08.582Z,8.10
2018-06-04T06:20:38.864Z,7.87
2018-06-04T06:23:09.512Z,7.80
2018-06-04T06:25:40.240Z,7.97
2018-06-04T06:28:10.908Z,8.67
2018-06-04T06:30:41.128Z,7.83
2018-06-04T06:33:11.731Z,8.50
2018-06-04T06:35:42.325Z,7.53
2018-06-04T06:38:13.095Z,7.50
2018-06-04T06:40:43.495Z,7.57
2018-06-04T06:43:14.176Z,7.93
2018-06-04T06:45:44.413Z,7.53
2018-06-04T06:48:15.058Z,7.40
2018-06-04T06:50:45.768Z,7.20
2018-06-04T06:53:16.528Z,6.73
2018-06-04T06:55:47.229Z,7.10
2018-06-04T06:58:17.581Z,7.63
2018-06-04T07:00:48.199Z,7.43
2018-06-04T07:03:18.875Z,7.80
2018-06-04T07:05:49.531Z,7.47
2018-06-04T07:08:20.365Z,6.87
2018-06-04T07:10:51.137Z,7.60
2018-06-04T07:13:21.929Z,7.40
2018-06-04T07:15:52.639Z,7.27
2018-06-04T07:18:23.485Z,7.50
2018-06-04T07:20:54.265Z,7.40
2018-06-04T07:23:24.576Z,7.03
2018-06-04T07:25:55.292Z,7.00
2018-06-04T07:28:26.068Z,7.10
2018-06-04T07:30:56.786Z,6.67
2018-06-04T07:33:27.565Z,6.60
2018-06-04T07:36:11.793Z,6.73
2018-06-04T07:38:42.441Z,7.73
2018-06-04T07:41:13.261Z,7.40
2018-06-04T07:43:43.966Z,6.57
2018-06-04T07:46:14.209Z,6.80
2018-06-04T07:48:44.949Z,6.70
2018-06-04T07:51:15.627Z,6.90
2018-06-04T07:53:47.849Z,6.80
2018-06-04T07:56:18.593Z,6.10
2018-06-04T07:58:49.437Z,5.87
2018-06-04T08:01:20.126Z,6.23
2018-06-04T08:03:50.411Z,5.63
2018-06-04T08:06:21.261Z,5.87
2018-06-04T08:08:51.978Z,5.40
2018-06-04T08:11:23.160Z,5.57
2018-06-04T08:13:53.901Z,6.50
2018-06-04T08:16:24.663Z,5.97
2018-06-04T08:18:55.343Z,5.30
2018-06-04T08:21:26.064Z,5.57
2018-06-04T08:23:57.037Z,5.87
2018-06-04T08:26:27.724Z,5.63
2018-06-04T08:28:58.398Z,6.17
2018-06-04T08:31:29.144Z,5.93
2018-06-04T08:33:59.759Z,4.90
2018-06-04T08:36:30.151Z,5.70
2018-06-04T08:39:00.787Z,4.93
2018-06-04T08:41:31.647Z,5.37
2018-06-04T08:44:02.408Z,5.00
2018-06-04T08:46:33.136Z,5.10
2018-06-04T08:49:03.832Z,5.27
2018-06-04T08:51:34.553Z,4.87
2018-06-04T08:54:05.177Z,5.03
2018-06-04T08:56:35.960Z,4.83
2018-06-04T08:59:06.307Z,4.63
2018-06-04T09:01:36.854Z,4.70
2018-06-04T09:04:07.653Z,4.90
2018-06-04T09:06:38.439Z,4.80
2018-06-04T09:09:09.139Z,5.43
2018-06-04T09:11:39.928Z,5.07
2018-06-04T09:14:10.740Z,5.23
2018-06-04T09:16:41.406Z,4.30
2018-06-04T09:19:11.663Z,4.83
2018-06-04T09:21:42.415Z,4.73
2018-06-04T09:24:13.388Z,5.03
2018-06-04T09:26:44.101Z,5.47
2018-06-04T09:29:14.809Z,5.83
2018-06-04T09:31:45.617Z,5.80
2018-06-04T09:34:16.323Z,5.20
2018-06-04T09:36:47.056Z,5.50
2018-06-04T09:39:19.232Z,5.43
2018-06-04T09:41:50.059Z,4.80
2018-06-04T09:44:20.751Z,5.43
2018-06-04T09:46:51.481Z,5.77
2018-06-04T09:49:22.179Z,5.57
2018-06-04T09:51:52.426Z,5.77
2018-06-04T09:54:23.058Z,6.10
2018-06-04T09:56:53.791Z,5.87
2018-06-04T09:59:24.485Z,5.30
2018-06-04T10:01:56.019Z,4.83
2018-06-04T10:04:26.784Z,5.57
2018-06-04T10:06:57.504Z,5.60
2018-06-04T10:09:29.073Z,5.27
2018-06-04T10:11:59.729Z,5.10
2018-06-04T10:14:30.836Z,4.70
2018-06-04T10:17:01.585Z,5.40
2018-06-04T10:19:32.957Z,5.27
2018-06-04T10:22:03.565Z,5.33
2018-06-04T10:24:34.351Z,4.87
2018-06-04T10:27:05.133Z,5.03
2018-06-04T10:29:37.225Z,4.80
2018-06-04T10:32:07.801Z,5.00
2018-06-04T10:34:38.406Z,4.97
2018-06-04T10:37:09.140Z,4.93
2018-06-04T10:39:39.959Z,5.53
2018-06-04T10:42:10.934Z,5.53
2018-06-04T10:44:41.668Z,5.50
2018-06-04T10:47:13.839Z,5.20
2018-06-04T10:49:44.639Z,4.93
2018-06-04T10:52:15.285Z,4.90
2018-06-04T10:54:46.043Z,5.13
2018-06-04T10:57:16.746Z,4.40
2018-06-04T10:59:49.001Z,4.90
2018-06-04T11:02:19.734Z,5.07
2018-06-04T11:04:50.684Z,4.93
2018-06-04T11:07:20.942Z,5.10
2018-06-04T11:09:51.632Z,4.53
2018-06-04T11:12:22.352Z,4.77
2018-06-04T11:14:53.071Z,4.70
2018-06-04T11:17:23.843Z,4.40
2018-06-04T11:19:54.507Z,4.70
2018-06-04T11:22:24.715Z,4.33
2018-06-04T11:24:54.869Z,4.70
2018-06-04T11:27:25.340Z,5.07
2018-06-04T11:29:56.199Z,4.37
2018-06-04T11:32:26.903Z,4.50
2018-06-04T11:34:57.606Z,4.67
2018-06-04T11:37:28.334Z,4.73
2018-06-04T11:39:58.644Z,4.90
2018-06-04T11:42:29.423Z,4.23
2018-06-04T11:45:00.220Z,4.90
2018-06-04T11:47:30.913Z,4.17
2018-06-04T11:50:01.591Z,4.70
2018-06-04T11:52:32.289Z,5.00
2018-06-04T11:55:02.953Z,4.70
2018-06-04T12:00:04.684Z,5.07
2018-06-04T12:02:35.856Z,4.90
2018-06-04T12:05:06.858Z,5.27
2018-06-04T12:07:37.969Z,5.20
2018-06-04T12:10:09.016Z,5.07
2018-06-04T12:12:39.853Z,5.10
2018-06-04T12:15:10.906Z,5.17
2018-06-04T12:17:41.729Z,4.77
2018-06-04T12:20:12.727Z,4.80
2018-06-04T12:22:43.827Z,4.87
2018-06-04T12:25:14.653Z,5.27
2018-06-04T12:27:45.404Z,5.43
2018-06-04T12:30:16.073Z,4.87
2018-06-04T12:32:46.402Z,5.17
2018-06-04T12:35:17.051Z,5.37
2018-06-04T12:37:47.848Z,5.50
2018-06-04T12:40:18.551Z,4.67
2018-06-04T12:42:49.495Z,4.83
2018-06-04T12:45:20.295Z,5.03
2018-06-04T12:47:51.094Z,5.17
2018-06-04T12:50:21.912Z,5.83
2018-06-04T12:52:52.636Z,5.77
2018-06-04T12:55:23.458Z,6.60
2018-06-04T12:57:55.537Z,5.80
2018-06-04T13:00:27.363Z,5.40
2018-06-04T13:02:58.154Z,5.73
2018-06-04T13:05:29.015Z,6.57
2018-06-04T13:07:59.804Z,5.63
2018-06-04T13:10:30.609Z,5.23
2018-06-04T13:13:01.384Z,5.23
2018-06-04T13:15:32.306Z,7.60
2018-06-04T13:18:46.706Z,6.93
2018-06-04T13:21:18.991Z,5.40
2018-06-04T13:23:50.098Z,6.87
2018-06-04T13:26:21.053Z,6.87
2018-06-04T13:28:51.456Z,6.20
2018-06-04T13:31:24.467Z,5.90
2018-06-04T13:33:55.736Z,4.33
2018-06-04T13:36:36.349Z,4.17
2018-06-04T13:39:09.436Z,4.23
2018-06-04T13:41:40.014Z,5.07
2018-06-04T13:44:10.956Z,5.33
2018-06-04T13:46:41.703Z,6.73
2018-06-04T13:49:12.580Z,6.33
2018-06-04T13:51:43.400Z,6.63
2018-06-04T13:54:14.196Z,7.00
2018-06-04T13:56:44.980Z,6.77
2018-06-04T13:59:15.795Z,7.00
2018-06-04T14:01:46.604Z,7.00
2018-06-04T14:04:17.279Z,6.67
2018-06-04T14:06:48.004Z,6.97
2018-06-04T14:09:18.675Z,5.73
2018-06-04T14:11:49.443Z,5.73
2018-06-04T14:14:20.104Z,5.50
2018-06-04T14:16:50.832Z,5.67
2018-06-04T14:19:21.677Z,5.00
2018-06-04T14:21:52.453Z,5.07
2018-06-04T14:24:23.700Z,4.77
2018-06-04T14:26:54.373Z,5.20
2018-06-04T14:29:25.183Z,4.90
2018-06-04T14:31:57.360Z,4.97
2018-06-04T14:34:28.099Z,5.07
2018-06-04T14:36:58.830Z,6.03
2018-06-04T14:39:30.553Z,5.10
2018-06-04T14:42:02.555Z,4.83
2018-06-04T14:44:35.815Z,5.23
2018-06-04T14:47:07.569Z,4.93
2018-06-04T14:49:38.268Z,5.17
2018-06-04T14:52:09.080Z,5.00
2018-06-04T14:54:39.981Z,5.70
2018-06-04T14:57:13.770Z,5.10
2018-06-04T14:59:44.497Z,5.10
2018-06-04T15:02:15.196Z,5.10
2018-06-04T15:04:45.921Z,6.97
2018-06-04T15:07:16.693Z,6.00
2018-06-04T15:09:47.349Z,5.77
2018-06-04T15:12:18.093Z,5.40
2018-06-04T15:14:48.798Z,5.23
2018-06-04T15:17:19.431Z,5.50
2018-06-04T15:19:50.264Z,5.57
2018-06-04T15:22:20.959Z,5.60
2018-06-04T15:24:51.682Z,5.17
2018-06-04T15:27:23.765Z,5.57
2018-06-04T15:29:55.993Z,5.60
2018-06-04T15:32:30.398Z,5.47
2018-06-04T15:35:03.031Z,5.23
2018-06-04T15:37:37.787Z,5.73
2018-06-04T15:40:08.786Z,5.53
2018-06-04T15:42:40.859Z,5.93
2018-06-04T15:45:16.723Z,5.90
2018-06-04T15:47:49.301Z,5.77
2018-06-04T15:50:39.888Z,5.40
2018-06-04T15:53:21.263Z,5.10
2018-06-04T15:55:52.720Z,5.23
2018-06-04T15:58:23.589Z,5.53
2018-06-04T16:00:54.703Z,4.90
2018-06-04T16:03:27.488Z,4.87
2018-06-04T16:05:58.267Z,5.40
2018-06-04T16:08:29.004Z,5.07
2018-06-04T16:10:59.687Z,4.97
2018-06-04T16:13:30.504Z,4.93
2018-06-04T16:16:01.291Z,4.77
2018-06-04T16:18:33.730Z,5.03
2018-06-04T16:21:04.555Z,5.10
2018-06-04T16:23:35.260Z,5.93
2018-06-04T16:26:05.927Z,5.50
2018-06-04T16:28:36.644Z,5.77
2018-06-04T16:31:07.237Z,5.47
2018-06-04T16:33:38.660Z,5.80
2018-06-04T16:36:09.475Z,6.43
2018-06-04T16:38:40.215Z,6.57
2018-06-04T16:41:10.964Z,5.83
2018-06-04T16:43:42.129Z,6.17
2018-06-04T16:46:12.458Z,6.07
2018-06-04T16:48:43.104Z,6.10
2018-06-04T16:51:13.836Z,5.90
2018-06-04T16:53:44.086Z,6.03
2018-06-04T16:56:14.686Z,5.90
2018-06-04T16:58:45.512Z,6.37
2018-06-04T17:01:16.187Z,6.20
2018-06-04T17:03:46.955Z,5.43
2018-06-04T17:06:17.669Z,5.80
2018-06-04T17:08:48.404Z,5.87
2018-06-04T17:11:19.867Z,5.50
2018-06-04T17:13:51.391Z,5.67
2018-06-04T17:16:23.331Z,5.27
2018-06-04T17:18:54.053Z,5.93
2018-06-04T17:21:24.803Z,5.50
2018-06-04T17:23:55.623Z,6.10
2018-06-04T17:26:26.797Z,5.97
2018-06-04T17:28:58.585Z,6.70
2018-06-04T17:31:29.796Z,6.47
2018-06-04T17:34:00.580Z,6.60
2018-06-04T17:36:32.009Z,6.80
2018-06-04T17:39:02.804Z,6.17
2018-06-04T17:41:33.545Z,6.87
2018-06-04T17:44:05.637Z,7.20
2018-06-04T17:46:36.568Z,6.63
2018-06-04T17:49:09.448Z,6.10
2018-06-04T17:51:42.621Z,7.03
2018-06-04T17:54:13.738Z,7.93
2018-06-04T17:56:44.601Z,7.27
2018-06-04T17:59:15.456Z,7.33
2018-06-04T18:01:46.142Z,6.87
2018-06-04T18:04:16.431Z,7.20
2018-06-04T18:06:47.422Z,7.70
2018-06-04T18:09:24.451Z,7.37
2018-06-04T18:12:01.560Z,7.73
2018-06-04T18:14:34.612Z,7.60
2018-06-04T18:17:05.949Z,7.90
2018-06-04T18:19:36.765Z,7.77
2018-06-04T18:22:07.749Z,8.37
2018-06-04T18:24:39.042Z,8.27
2018-06-04T18:27:09.631Z,8.10
2018-06-04T18:29:40.399Z,8.30
2018-06-04T18:32:11.263Z,8.43
2018-06-04T18:34:42.919Z,8.53
2018-06-04T18:37:13.652Z,8.93
2018-06-04T18:39:45.577Z,8.17
2018-06-04T18:42:21.634Z,7.73
2018-06-04T18:44:52.485Z,7.90
2018-06-04T18:47:24.560Z,8.83
2018-06-04T18:49:58.064Z,7.97
2018-06-04T18:58:13.669Z,9.00
2018-06-04T19:00:47.366Z,7.93
2018-06-04T19:03:20.164Z,7.70
2018-06-04T19:05:50.836Z,7.13
2018-06-04T19:08:21.574Z,8.23
2018-06-04T19:10:52.893Z,8.00
2018-06-04T19:13:41.734Z,7.23
2018-06-04T19:16:14.883Z,7.90
2018-06-04T19:18:45.735Z,7.43
2018-06-04T19:21:16.592Z,7.47
2018-06-04T19:23:47.388Z,8.07
2018-06-04T19:26:18.267Z,7.47
2018-06-04T19:28:49.158Z,8.83
2018-06-04T19:31:31.177Z,7.60
2018-06-04T19:34:02.925Z,6.63
2018-06-04T19:36:38.020Z,7.50
2018-06-04T19:39:12.184Z,7.20
2018-06-04T19:41:44.596Z,7.20
2018-06-04T19:44:15.364Z,7.03
2018-06-04T19:46:46.951Z,7.07
2018-06-04T19:49:17.989Z,6.83
2018-06-04T19:51:48.723Z,7.37
2018-06-04T19:54:19.375Z,6.93
2018-06-04T19:56:50.146Z,6.17
2018-06-04T19:59:20.904Z,13.90
2018-06-04T20:01:51.257Z,6.70
2018-06-04T20:04:21.852Z,6.67
2018-06-04T20:06:52.466Z,7.43
2018-06-04T20:09:23.107Z,7.13
2018-06-04T20:11:53.773Z,7.07
2018-06-04T20:14:24.502Z,6.70
2018-06-04T20:16:55.268Z,7.00
2018-06-04T20:19:26.109Z,6.83
2018-06-04T20:21:56.814Z,7.43
2018-06-04T20:24:27.594Z,7.47
2018-06-04T20:26:58.344Z,7.53
2018-06-04T20:29:29.142Z,7.77
2018-06-04T20:31:59.979Z,8.33
2018-06-04T20:34:30.690Z,8.20
2018-06-04T20:37:01.488Z,8.37
2018-06-04T20:39:32.225Z,7.77
2018-06-04T20:42:02.924Z,8.20
2018-06-04T20:44:33.639Z,8.20
2018-06-04T20:47:04.390Z,7.93
2018-06-04T20:49:35.276Z,8.27
2018-06-04T20:52:06.026Z,8.17
2018-06-04T20:54:36.790Z,7.90
2018-06-04T20:57:07.614Z,8.27
2018-06-04T20:59:38.388Z,7.90
2018-06-04T21:02:09.911Z,8.23
2018-06-04T21:04:40.754Z,8.70
2018-06-04T21:07:13.335Z,8.73
2018-06-04T21:09:45.315Z,9.07
2018-06-04T21:12:16.017Z,8.93
2018-06-04T21:14:46.818Z,9.73
2018-06-04T21:17:17.686Z,9.17
2018-06-04T21:19:48.348Z,8.13
2018-06-04T21:22:19.178Z,9.00
2018-06-04T21:24:49.982Z,8.43
2018-06-04T21:27:20.710Z,8.30
2018-06-04T21:29:51.487Z,7.83
2018-06-04T21:32:22.317Z,9.03
2018-06-04T21:34:53.051Z,8.60
2018-06-04T21:37:23.939Z,8.53
2018-06-04T21:39:54.731Z,8.87
2018-06-04T21:42:25.595Z,8.67
2018-06-04T21:44:56.280Z,9.03
2018-06-04T21:47:26.963Z,8.43
2018-06-04T21:49:57.933Z,8.90
2018-06-04T21:52:28.766Z,8.70
2018-06-04T21:54:59.525Z,8.10
2018-06-04T21:57:33.391Z,8.33
2018-06-04T22:00:06.359Z,8.67
2018-06-04T22:02:37.741Z,9.60
2018-06-04T22:05:08.553Z,8.80
2018-06-04T22:07:39.222Z,9.37
2018-06-04T22:10:10.045Z,10.40
2018-06-04T22:12:40.786Z,10.33
2018-06-04T22:15:12.170Z,9.70
2018-06-04T22:17:42.430Z,9.63
2018-06-04T22:20:13.154Z,10.13
2018-06-04T22:22:43.895Z,9.80
2018-06-04T22:25:14.538Z,8.83
2018-06-04T22:27:45.244Z,9.50
2018-06-04T22:30:15.477Z,9.13
2018-06-04T22:32:46.314Z,9.17
2018-06-04T22:35:17.026Z,9.27
2018-06-04T22:37:47.760Z,9.23
2018-06-04T22:40:18.459Z,10.07
2018-06-04T22:42:49.221Z,10.30
2018-06-04T22:45:19.908Z,10.67
2018-06-04T22:47:50.650Z,9.40
2018-06-04T22:50:21.788Z,9.40
2018-06-04T22:52:52.507Z,9.70
2018-06-04T22:55:23.255Z,9.47
2018-06-04T22:57:54.022Z,9.23
2018-06-04T23:00:36.564Z,9.57
2018-06-04T23:03:07.732Z,9.77
2018-06-04T23:05:38.401Z,9.77
2018-06-04T23:08:09.059Z,9.60
2018-06-04T23:10:39.752Z,9.83
2018-06-04T23:13:10.459Z,9.57
2018-06-04T23:15:41.283Z,9.77
2018-06-04T23:18:11.906Z,10.47
2018-06-04T23:20:42.621Z,10.50
2018-06-04T23:23:13.291Z,10.27
2018-06-04T23:25:44.063Z,9.70
2018-06-04T23:28:14.796Z,10.17
2018-06-04T23:30:45.536Z,9.87
2018-06-04T23:33:16.274Z,9.90
2018-06-04T23:35:46.995Z,9.37
2018-06-04T23:38:17.805Z,9.20
2018-06-04T23:40:48.482Z,9.47
2018-06-04T23:43:18.739Z,9.60
2018-06-04T23:45:49.700Z,9.73
2018-06-04T23:48:20.369Z,9.70
2018-06-04T23:50:51.282Z,9.93
2018-06-04T23:53:22.040Z,9.13
2018-06-04T23:55:52.727Z,10.33
2018-06-04T23:58:23.470Z,9.30
